sensor_id;sensor_type;location;lat;lon;timestamp;P1;durP1;ratioP1;P2;durP2;ratioP2
11283;SDS011;5698;47.332;11.180;2023-05-07T00:01:42;2.70;;;2.30;;
11283;SDS011;5698;47.332;11.180;2023-05-07T00:04:09;3.70;;;3.37;;
11283;SDS011;5698;47.332;11.180;2023-05-07T00:06:36;4.03;;;3.53;;
11283;SDS011;5698;47.332;11.180;2023-05-07T00:09:03;3.83;;;3.40;;
11283;SDS011;5698;47.332;11.180;2023-05-07T00:11:30;3.10;;;2.80;;
11283;SDS011;5698;47.332;11.180;2023-05-07T00:13:58;3.70;;;3.07;;
11283;SDS011;5698;47.332;11.180;2023-05-07T00:16:25;3.27;;;2.70;;
11283;SDS011;5698;47.332;11.180;2023-05-07T00:18:53;3.60;;;3.30;;
11283;SDS011;5698;47.332;11.180;2023-05-07T00:21:20;3.00;;;2.70;;
11283;SDS011;5698;47.332;11.180;2023-05-07T00:23:47;3.33;;;3.00;;
11283;SDS011;5698;47.332;11.180;2023-05-07T00:26:14;2.93;;;2.60;;
11283;SDS011;5698;47.332;11.180;2023-05-07T00:28:42;2.70;;;2.50;;
11283;SDS011;5698;47.332;11.180;2023-05-07T00:31:09;2.83;;;2.30;;
11283;SDS011;5698;47.332;11.180;2023-05-07T00:33:36;3.30;;;2.70;;
11283;SDS011;5698;47.332;11.180;2023-05-07T00:36:05;2.73;;;2.20;;
11283;SDS011;5698;47.332;11.180;2023-05-07T00:38:33;2.53;;;2.23;;
11283;SDS011;5698;47.332;11.180;2023-05-07T00:41:00;3.53;;;2.83;;
11283;SDS011;5698;47.332;11.180;2023-05-07T00:43:27;3.17;;;2.80;;
11283;SDS011;5698;47.332;11.180;2023-05-07T00:45:54;4.57;;;3.87;;
11283;SDS011;5698;47.332;11.180;2023-05-07T00:48:22;3.77;;;2.63;;
11283;SDS011;5698;47.332;11.180;2023-05-07T00:50:49;3.00;;;2.80;;
11283;SDS011;5698;47.332;11.180;2023-05-07T00:53:18;4.57;;;3.37;;
11283;SDS011;5698;47.332;11.180;2023-05-07T00:55:45;3.33;;;3.03;;
11283;SDS011;5698;47.332;11.180;2023-05-07T00:58:12;3.50;;;3.20;;
11283;SDS011;5698;47.332;11.180;2023-05-07T01:00:39;3.60;;;3.20;;
11283;SDS011;5698;47.332;11.180;2023-05-07T01:03:07;3.47;;;3.00;;
11283;SDS011;5698;47.332;11.180;2023-05-07T01:05:34;2.97;;;2.70;;
11283;SDS011;5698;47.332;11.180;2023-05-07T01:08:02;2.47;;;2.27;;
11283;SDS011;5698;47.332;11.180;2023-05-07T01:10:31;4.37;;;2.53;;
11283;SDS011;5698;47.332;11.180;2023-05-07T01:12:58;2.37;;;2.17;;
11283;SDS011;5698;47.332;11.180;2023-05-07T01:15:26;3.27;;;2.67;;
11283;SDS011;5698;47.332;11.180;2023-05-07T01:17:56;2.93;;;2.73;;
11283;SDS011;5698;47.332;11.180;2023-05-07T01:20:23;2.43;;;2.23;;
11283;SDS011;5698;47.332;11.180;2023-05-07T01:22:52;4.63;;;3.23;;
11283;SDS011;5698;47.332;11.180;2023-05-07T01:25:20;2.97;;;2.67;;
11283;SDS011;5698;47.332;11.180;2023-05-07T01:27:48;3.13;;;2.67;;
11283;SDS011;5698;47.332;11.180;2023-05-07T01:30:15;4.33;;;2.80;;
11283;SDS011;5698;47.332;11.180;2023-05-07T01:32:43;3.63;;;3.30;;
11283;SDS011;5698;47.332;11.180;2023-05-07T01:35:19;4.27;;;3.13;;
11283;SDS011;5698;47.332;11.180;2023-05-07T01:37:49;3.63;;;3.20;;
11283;SDS011;5698;47.332;11.180;2023-05-07T01:40:17;2.80;;;2.50;;
11283;SDS011;5698;47.332;11.180;2023-05-07T01:42:45;3.30;;;2.50;;
11283;SDS011;5698;47.332;11.180;2023-05-07T01:45:13;3.73;;;2.80;;
11283;SDS011;5698;47.332;11.180;2023-05-07T01:47:40;3.07;;;2.77;;
11283;SDS011;5698;47.332;11.180;2023-05-07T01:50:08;3.13;;;2.53;;
11283;SDS011;5698;47.332;11.180;2023-05-07T01:52:36;4.20;;;3.53;;
11283;SDS011;5698;47.332;11.180;2023-05-07T01:55:04;3.40;;;3.10;;
11283;SDS011;5698;47.332;11.180;2023-05-07T01:57:34;3.40;;;3.10;;
11283;SDS011;5698;47.332;11.180;2023-05-07T02:00:01;3.50;;;3.20;;
11283;SDS011;5698;47.332;11.180;2023-05-07T02:02:31;5.37;;;3.60;;
11283;SDS011;5698;47.332;11.180;2023-05-07T02:04:59;3.53;;;3.23;;
11283;SDS011;5698;47.332;11.180;2023-05-07T02:07:26;3.87;;;3.47;;
11283;SDS011;5698;47.332;11.180;2023-05-07T02:09:53;3.37;;;3.17;;
11283;SDS011;5698;47.332;11.180;2023-05-07T02:12:21;5.33;;;3.40;;
11283;SDS011;5698;47.332;11.180;2023-05-07T02:14:49;4.97;;;2.90;;
11283;SDS011;5698;47.332;11.180;2023-05-07T02:17:16;4.03;;;3.20;;
11283;SDS011;5698;47.332;11.180;2023-05-07T02:19:43;3.50;;;3.20;;
11283;SDS011;5698;47.332;11.180;2023-05-07T02:22:10;3.70;;;3.30;;
11283;SDS011;5698;47.332;11.180;2023-05-07T02:24:37;3.63;;;2.73;;
11283;SDS011;5698;47.332;11.180;2023-05-07T02:27:04;3.13;;;2.93;;
11283;SDS011;5698;47.332;11.180;2023-05-07T02:29:31;3.23;;;2.93;;
11283;SDS011;5698;47.332;11.180;2023-05-07T02:32:00;3.43;;;2.73;;
11283;SDS011;5698;47.332;11.180;2023-05-07T02:34:27;3.70;;;2.70;;
11283;SDS011;5698;47.332;11.180;2023-05-07T02:36:54;3.40;;;2.60;;
11283;SDS011;5698;47.332;11.180;2023-05-07T02:39:21;4.33;;;2.93;;
11283;SDS011;5698;47.332;11.180;2023-05-07T02:41:48;3.33;;;3.03;;
11283;SDS011;5698;47.332;11.180;2023-05-07T02:44:15;13.17;;;7.20;;
11283;SDS011;5698;47.332;11.180;2023-05-07T02:46:42;8.60;;;5.00;;
11283;SDS011;5698;47.332;11.180;2023-05-07T02:49:10;13.83;;;9.93;;
11283;SDS011;5698;47.332;11.180;2023-05-07T02:51:37;11.07;;;8.03;;
11283;SDS011;5698;47.332;11.180;2023-05-07T02:54:04;9.43;;;7.33;;
11283;SDS011;5698;47.332;11.180;2023-05-07T02:56:31;7.97;;;5.80;;
11283;SDS011;5698;47.332;11.180;2023-05-07T02:58:59;5.53;;;3.80;;
11283;SDS011;5698;47.332;11.180;2023-05-07T03:01:25;5.20;;;4.70;;
11283;SDS011;5698;47.332;11.180;2023-05-07T03:03:53;3.30;;;3.10;;
11283;SDS011;5698;47.332;11.180;2023-05-07T03:06:22;2.93;;;2.63;;
11283;SDS011;5698;47.332;11.180;2023-05-07T03:08:49;6.67;;;4.60;;
11283;SDS011;5698;47.332;11.180;2023-05-07T03:11:16;6.87;;;4.63;;
11283;SDS011;5698;47.332;11.180;2023-05-07T03:13:43;7.13;;;5.90;;
11283;SDS011;5698;47.332;11.180;2023-05-07T03:16:10;5.60;;;4.80;;
11283;SDS011;5698;47.332;11.180;2023-05-07T03:18:37;4.77;;;4.37;;
11283;SDS011;5698;47.332;11.180;2023-05-07T03:21:04;3.70;;;3.40;;
11283;SDS011;5698;47.332;11.180;2023-05-07T03:23:33;5.57;;;4.43;;
11283;SDS011;5698;47.332;11.180;2023-05-07T03:26:00;3.80;;;3.50;;
11283;SDS011;5698;47.332;11.180;2023-05-07T03:28:27;4.13;;;3.60;;
11283;SDS011;5698;47.332;11.180;2023-05-07T03:30:54;3.40;;;3.07;;
11283;SDS011;5698;47.332;11.180;2023-05-07T03:33:21;3.97;;;3.63;;
11283;SDS011;5698;47.332;11.180;2023-05-07T03:35:48;4.20;;;3.57;;
11283;SDS011;5698;47.332;11.180;2023-05-07T03:38:15;3.87;;;3.53;;
11283;SDS011;5698;47.332;11.180;2023-05-07T03:40:43;5.47;;;4.97;;
11283;SDS011;5698;47.332;11.180;2023-05-07T03:43:10;4.67;;;3.90;;
11283;SDS011;5698;47.332;11.180;2023-05-07T03:45:37;6.13;;;4.20;;
11283;SDS011;5698;47.332;11.180;2023-05-07T03:48:04;4.67;;;4.27;;
11283;SDS011;5698;47.332;11.180;2023-05-07T03:50:31;5.07;;;4.23;;
11283;SDS011;5698;47.332;11.180;2023-05-07T03:52:58;4.00;;;3.50;;
11283;SDS011;5698;47.332;11.180;2023-05-07T03:55:25;3.77;;;3.47;;
11283;SDS011;5698;47.332;11.180;2023-05-07T03:57:54;3.30;;;2.97;;
11283;SDS011;5698;47.332;11.180;2023-05-07T04:00:21;3.80;;;3.37;;
11283;SDS011;5698;47.332;11.180;2023-05-07T04:02:48;3.47;;;3.17;;
11283;SDS011;5698;47.332;11.180;2023-05-07T04:05:15;4.50;;;3.00;;
11283;SDS011;5698;47.332;11.180;2023-05-07T04:07:42;2.77;;;2.57;;
11283;SDS011;5698;47.332;11.180;2023-05-07T04:10:09;3.23;;;2.90;;
11283;SDS011;5698;47.332;11.180;2023-05-07T04:12:38;3.23;;;2.93;;
11283;SDS011;5698;47.332;11.180;2023-05-07T04:15:07;3.43;;;2.80;;
11283;SDS011;5698;47.332;11.180;2023-05-07T04:17:34;4.13;;;3.17;;
11283;SDS011;5698;47.332;11.180;2023-05-07T04:20:02;2.90;;;2.70;;
11283;SDS011;5698;47.332;11.180;2023-05-07T04:22:29;2.97;;;2.67;;
11283;SDS011;5698;47.332;11.180;2023-05-07T04:24:56;2.93;;;2.73;;
11283;SDS011;5698;47.332;11.180;2023-05-07T04:27:23;2.90;;;2.70;;
11283;SDS011;5698;47.332;11.180;2023-05-07T04:29:51;3.47;;;2.83;;
11283;SDS011;5698;47.332;11.180;2023-05-07T04:32:22;2.87;;;2.57;;
11283;SDS011;5698;47.332;11.180;2023-05-07T04:34:50;4.40;;;2.70;;
11283;SDS011;5698;47.332;11.180;2023-05-07T04:37:17;2.63;;;2.43;;
11283;SDS011;5698;47.332;11.180;2023-05-07T04:39:44;2.73;;;2.53;;
11283;SDS011;5698;47.332;11.180;2023-05-07T04:42:14;2.43;;;2.10;;
11283;SDS011;5698;47.332;11.180;2023-05-07T04:44:41;2.37;;;2.17;;
11283;SDS011;5698;47.332;11.180;2023-05-07T04:47:08;2.40;;;2.20;;
11283;SDS011;5698;47.332;11.180;2023-05-07T04:49:36;2.40;;;2.20;;
11283;SDS011;5698;47.332;11.180;2023-05-07T04:52:04;3.30;;;2.10;;
11283;SDS011;5698;47.332;11.180;2023-05-07T04:54:31;2.40;;;2.20;;
11283;SDS011;5698;47.332;11.180;2023-05-07T04:56:58;2.00;;;1.90;;
11283;SDS011;5698;47.332;11.180;2023-05-07T04:59:25;2.20;;;2.00;;
11283;SDS011;5698;47.332;11.180;2023-05-07T05:01:52;2.30;;;2.10;;
11283;SDS011;5698;47.332;11.180;2023-05-07T05:04:19;3.50;;;3.20;;
11283;SDS011;5698;47.332;11.180;2023-05-07T05:06:47;4.57;;;3.20;;
11283;SDS011;5698;47.332;11.180;2023-05-07T05:09:14;2.77;;;2.57;;
11283;SDS011;5698;47.332;11.180;2023-05-07T05:11:41;3.33;;;2.10;;
11283;SDS011;5698;47.332;11.180;2023-05-07T05:14:08;2.57;;;2.03;;
11283;SDS011;5698;47.332;11.180;2023-05-07T05:16:35;2.90;;;2.60;;
11283;SDS011;5698;47.332;11.180;2023-05-07T05:19:02;3.33;;;2.20;;
11283;SDS011;5698;47.332;11.180;2023-05-07T05:21:29;2.53;;;2.33;;
11283;SDS011;5698;47.332;11.180;2023-05-07T05:23:58;2.90;;;2.70;;
11283;SDS011;5698;47.332;11.180;2023-05-07T05:26:25;2.63;;;2.43;;
11283;SDS011;5698;47.332;11.180;2023-05-07T05:28:52;2.90;;;2.67;;
11283;SDS011;5698;47.332;11.180;2023-05-07T05:31:19;2.80;;;2.60;;
11283;SDS011;5698;47.332;11.180;2023-05-07T05:33:46;4.63;;;4.23;;
11283;SDS011;5698;47.332;11.180;2023-05-07T05:36:13;5.20;;;4.47;;
11283;SDS011;5698;47.332;11.180;2023-05-07T05:38:40;4.97;;;4.47;;
11283;SDS011;5698;47.332;11.180;2023-05-07T05:41:08;5.60;;;4.40;;
11283;SDS011;5698;47.332;11.180;2023-05-07T05:43:35;3.87;;;3.53;;
11283;SDS011;5698;47.332;11.180;2023-05-07T05:46:02;2.47;;;2.27;;
11283;SDS011;5698;47.332;11.180;2023-05-07T05:48:31;2.67;;;1.70;;
11283;SDS011;5698;47.332;11.180;2023-05-07T05:50:58;1.30;;;1.20;;
11283;SDS011;5698;47.332;11.180;2023-05-07T05:53:25;1.30;;;1.17;;
11283;SDS011;5698;47.332;11.180;2023-05-07T05:55:52;1.17;;;0.90;;
11283;SDS011;5698;47.332;11.180;2023-05-07T05:58:20;1.33;;;1.00;;
11283;SDS011;5698;47.332;11.180;2023-05-07T06:00:47;2.80;;;0.90;;
11283;SDS011;5698;47.332;11.180;2023-05-07T06:03:17;1.00;;;0.90;;
11283;SDS011;5698;47.332;11.180;2023-05-07T06:05:44;1.90;;;1.10;;
11283;SDS011;5698;47.332;11.180;2023-05-07T06:08:11;1.33;;;1.10;;
11283;SDS011;5698;47.332;11.180;2023-05-07T06:10:38;1.50;;;1.23;;
11283;SDS011;5698;47.332;11.180;2023-05-07T06:13:05;1.23;;;0.90;;
11283;SDS011;5698;47.332;11.180;2023-05-07T06:15:33;0.90;;;0.73;;
11283;SDS011;5698;47.332;11.180;2023-05-07T06:18:00;1.70;;;0.90;;
11283;SDS011;5698;47.332;11.180;2023-05-07T06:20:27;0.70;;;0.70;;
11283;SDS011;5698;47.332;11.180;2023-05-07T06:22:54;0.73;;;0.73;;
11283;SDS011;5698;47.332;11.180;2023-05-07T06:25:21;0.97;;;0.80;;
11283;SDS011;5698;47.332;11.180;2023-05-07T06:27:48;1.17;;;0.97;;
11283;SDS011;5698;47.332;11.180;2023-05-07T06:30:15;1.30;;;0.80;;
11283;SDS011;5698;47.332;11.180;2023-05-07T06:32:43;2.20;;;0.90;;
11283;SDS011;5698;47.332;11.180;2023-05-07T06:35:10;1.70;;;0.90;;
11283;SDS011;5698;47.332;11.180;2023-05-07T06:37:38;1.47;;;0.83;;
11283;SDS011;5698;47.332;11.180;2023-05-07T06:40:07;1.80;;;0.60;;
11283;SDS011;5698;47.332;11.180;2023-05-07T06:42:35;1.60;;;1.20;;
11283;SDS011;5698;47.332;11.180;2023-05-07T06:45:03;0.87;;;0.80;;
11283;SDS011;5698;47.332;11.180;2023-05-07T06:47:30;1.67;;;0.70;;
11283;SDS011;5698;47.332;11.180;2023-05-07T06:49:59;1.80;;;0.70;;
11283;SDS011;5698;47.332;11.180;2023-05-07T06:52:26;2.50;;;1.00;;
11283;SDS011;5698;47.332;11.180;2023-05-07T06:54:52;1.47;;;0.90;;
11283;SDS011;5698;47.332;11.180;2023-05-07T06:57:20;1.00;;;0.87;;
11283;SDS011;5698;47.332;11.180;2023-05-07T06:59:47;1.03;;;0.80;;
11283;SDS011;5698;47.332;11.180;2023-05-07T07:02:14;1.93;;;0.77;;
11283;SDS011;5698;47.332;11.180;2023-05-07T07:04:41;2.97;;;1.80;;
11283;SDS011;5698;47.332;11.180;2023-05-07T07:07:09;1.03;;;0.90;;
11283;SDS011;5698;47.332;11.180;2023-05-07T07:09:36;0.93;;;0.83;;
11283;SDS011;5698;47.332;11.180;2023-05-07T07:12:03;1.17;;;0.87;;
11283;SDS011;5698;47.332;11.180;2023-05-07T07:14:30;0.90;;;0.90;;
11283;SDS011;5698;47.332;11.180;2023-05-07T07:16:57;0.80;;;0.60;;
11283;SDS011;5698;47.332;11.180;2023-05-07T07:19:25;0.83;;;0.77;;
11283;SDS011;5698;47.332;11.180;2023-05-07T07:21:52;0.97;;;0.80;;
11283;SDS011;5698;47.332;11.180;2023-05-07T07:24:20;0.77;;;0.60;;
11283;SDS011;5698;47.332;11.180;2023-05-07T07:26:47;2.63;;;0.80;;
11283;SDS011;5698;47.332;11.180;2023-05-07T07:29:14;1.90;;;0.90;;
11283;SDS011;5698;47.332;11.180;2023-05-07T07:31:41;0.70;;;0.70;;
11283;SDS011;5698;47.332;11.180;2023-05-07T07:34:08;1.70;;;0.70;;
11283;SDS011;5698;47.332;11.180;2023-05-07T07:36:35;0.83;;;0.70;;
11283;SDS011;5698;47.332;11.180;2023-05-07T07:39:02;0.67;;;0.67;;
11283;SDS011;5698;47.332;11.180;2023-05-07T07:41:31;1.10;;;0.80;;
11283;SDS011;5698;47.332;11.180;2023-05-07T07:43:57;1.07;;;0.80;;
11283;SDS011;5698;47.332;11.180;2023-05-07T07:46:24;1.43;;;0.80;;
11283;SDS011;5698;47.332;11.180;2023-05-07T07:48:51;1.03;;;0.70;;
11283;SDS011;5698;47.332;11.180;2023-05-07T07:51:19;1.80;;;0.70;;
11283;SDS011;5698;47.332;11.180;2023-05-07T07:53:46;0.93;;;0.70;;
11283;SDS011;5698;47.332;11.180;2023-05-07T07:56:13;0.60;;;0.60;;
11283;SDS011;5698;47.332;11.180;2023-05-07T07:58:41;1.53;;;0.70;;
11283;SDS011;5698;47.332;11.180;2023-05-07T08:01:08;0.63;;;0.60;;
11283;SDS011;5698;47.332;11.180;2023-05-07T08:03:37;0.50;;;0.50;;
11283;SDS011;5698;47.332;11.180;2023-05-07T08:06:04;0.60;;;0.60;;
11283;SDS011;5698;47.332;11.180;2023-05-07T08:08:31;1.03;;;0.60;;
11283;SDS011;5698;47.332;11.180;2023-05-07T08:10:58;0.63;;;0.63;;
11283;SDS011;5698;47.332;11.180;2023-05-07T08:13:25;0.70;;;0.60;;
11283;SDS011;5698;47.332;11.180;2023-05-07T08:15:54;0.80;;;0.67;;
11283;SDS011;5698;47.332;11.180;2023-05-07T08:18:20;0.50;;;0.50;;
11283;SDS011;5698;47.332;11.180;2023-05-07T08:20:49;0.63;;;0.50;;
11283;SDS011;5698;47.332;11.180;2023-05-07T08:23:16;0.77;;;0.60;;
11283;SDS011;5698;47.332;11.180;2023-05-07T08:25:43;2.10;;;0.60;;
11283;SDS011;5698;47.332;11.180;2023-05-07T08:28:10;1.27;;;0.80;;
11283;SDS011;5698;47.332;11.180;2023-05-07T08:30:37;1.60;;;0.87;;
11283;SDS011;5698;47.332;11.180;2023-05-07T08:33:05;1.37;;;0.90;;
11283;SDS011;5698;47.332;11.180;2023-05-07T08:35:34;0.67;;;0.63;;
11283;SDS011;5698;47.332;11.180;2023-05-07T08:38:01;1.00;;;0.80;;
11283;SDS011;5698;47.332;11.180;2023-05-07T08:40:28;1.27;;;0.70;;
11283;SDS011;5698;47.332;11.180;2023-05-07T08:42:59;2.93;;;0.70;;
11283;SDS011;5698;47.332;11.180;2023-05-07T08:45:28;0.70;;;0.60;;
11283;SDS011;5698;47.332;11.180;2023-05-07T08:47:59;0.50;;;0.50;;
11283;SDS011;5698;47.332;11.180;2023-05-07T08:50:29;0.57;;;0.57;;
11283;SDS011;5698;47.332;11.180;2023-05-07T08:52:56;1.07;;;0.67;;
11283;SDS011;5698;47.332;11.180;2023-05-07T08:55:25;1.00;;;0.90;;
11283;SDS011;5698;47.332;11.180;2023-05-07T08:57:52;1.17;;;0.70;;
11283;SDS011;5698;47.332;11.180;2023-05-07T09:00:19;1.00;;;0.90;;
11283;SDS011;5698;47.332;11.180;2023-05-07T09:02:46;0.90;;;0.83;;
11283;SDS011;5698;47.332;11.180;2023-05-07T09:05:13;0.77;;;0.63;;
11283;SDS011;5698;47.332;11.180;2023-05-07T09:07:41;0.80;;;0.70;;
11283;SDS011;5698;47.332;11.180;2023-05-07T09:10:09;1.13;;;0.90;;
11283;SDS011;5698;47.332;11.180;2023-05-07T09:12:36;1.13;;;0.70;;
11283;SDS011;5698;47.332;11.180;2023-05-07T09:15:04;1.37;;;0.80;;
11283;SDS011;5698;47.332;11.180;2023-05-07T09:17:32;1.27;;;0.87;;
11283;SDS011;5698;47.332;11.180;2023-05-07T09:20:01;1.03;;;0.60;;
11283;SDS011;5698;47.332;11.180;2023-05-07T09:22:31;1.20;;;0.60;;
11283;SDS011;5698;47.332;11.180;2023-05-07T09:24:59;0.67;;;0.60;;
11283;SDS011;5698;47.332;11.180;2023-05-07T09:27:26;0.63;;;0.63;;
11283;SDS011;5698;47.332;11.180;2023-05-07T09:29:53;1.10;;;0.70;;
11283;SDS011;5698;47.332;11.180;2023-05-07T09:32:20;2.30;;;0.90;;
11283;SDS011;5698;47.332;11.180;2023-05-07T09:34:47;2.30;;;1.00;;
11283;SDS011;5698;47.332;11.180;2023-05-07T09:37:14;0.93;;;0.60;;
11283;SDS011;5698;47.332;11.180;2023-05-07T09:39:43;1.57;;;0.80;;
11283;SDS011;5698;47.332;11.180;2023-05-07T09:42:12;1.90;;;0.67;;
11283;SDS011;5698;47.332;11.180;2023-05-07T09:44:41;0.50;;;0.50;;
11283;SDS011;5698;47.332;11.180;2023-05-07T09:47:09;2.20;;;0.70;;
11283;SDS011;5698;47.332;11.180;2023-05-07T09:49:38;1.20;;;0.70;;
11283;SDS011;5698;47.332;11.180;2023-05-07T09:52:07;0.70;;;0.70;;
11283;SDS011;5698;47.332;11.180;2023-05-07T09:54:35;1.27;;;0.60;;
11283;SDS011;5698;47.332;11.180;2023-05-07T09:57:04;0.93;;;0.60;;
11283;SDS011;5698;47.332;11.180;2023-05-07T09:59:33;1.40;;;0.87;;
11283;SDS011;5698;47.332;11.180;2023-05-07T10:02:03;0.70;;;0.70;;
11283;SDS011;5698;47.332;11.180;2023-05-07T10:04:31;0.87;;;0.70;;
11283;SDS011;5698;47.332;11.180;2023-05-07T10:06:58;0.60;;;0.60;;
11283;SDS011;5698;47.332;11.180;2023-05-07T10:09:26;0.93;;;0.70;;
11283;SDS011;5698;47.332;11.180;2023-05-07T10:11:53;2.97;;;1.00;;
11283;SDS011;5698;47.332;11.180;2023-05-07T10:14:21;1.50;;;0.60;;
11283;SDS011;5698;47.332;11.180;2023-05-07T10:16:49;1.07;;;0.77;;
11283;SDS011;5698;47.332;11.180;2023-05-07T10:19:19;1.03;;;0.77;;
11283;SDS011;5698;47.332;11.180;2023-05-07T10:21:48;1.23;;;0.80;;
11283;SDS011;5698;47.332;11.180;2023-05-07T10:24:24;2.10;;;0.87;;
11283;SDS011;5698;47.332;11.180;2023-05-07T10:26:53;0.67;;;0.60;;
11283;SDS011;5698;47.332;11.180;2023-05-07T10:29:25;1.13;;;0.70;;
11283;SDS011;5698;47.332;11.180;2023-05-07T10:32:07;1.77;;;0.70;;
11283;SDS011;5698;47.332;11.180;2023-05-07T10:34:44;2.47;;;0.93;;
11283;SDS011;5698;47.332;11.180;2023-05-07T10:37:14;1.77;;;0.63;;
11283;SDS011;5698;47.332;11.180;2023-05-07T10:39:42;3.60;;;1.03;;
11283;SDS011;5698;47.332;11.180;2023-05-07T10:42:09;0.67;;;0.67;;
11283;SDS011;5698;47.332;11.180;2023-05-07T10:44:37;1.63;;;0.70;;
11283;SDS011;5698;47.332;11.180;2023-05-07T10:47:07;2.00;;;0.87;;
11283;SDS011;5698;47.332;11.180;2023-05-07T10:49:35;0.80;;;0.70;;
11283;SDS011;5698;47.332;11.180;2023-05-07T10:52:16;0.80;;;0.80;;
11283;SDS011;5698;47.332;11.180;2023-05-07T10:54:44;1.07;;;0.70;;
11283;SDS011;5698;47.332;11.180;2023-05-07T11:00:04;1.57;;;0.87;;
11283;SDS011;5698;47.332;11.180;2023-05-07T11:03:13;1.70;;;0.80;;
11283;SDS011;5698;47.332;11.180;2023-05-07T11:05:41;1.00;;;0.80;;
11283;SDS011;5698;47.332;11.180;2023-05-07T11:08:08;2.17;;;0.80;;
11283;SDS011;5698;47.332;11.180;2023-05-07T11:10:49;2.50;;;0.90;;
11283;SDS011;5698;47.332;11.180;2023-05-07T11:13:17;0.93;;;0.70;;
11283;SDS011;5698;47.332;11.180;2023-05-07T11:15:45;1.43;;;0.60;;
11283;SDS011;5698;47.332;11.180;2023-05-07T11:18:15;0.67;;;0.67;;
11283;SDS011;5698;47.332;11.180;2023-05-07T11:20:46;3.33;;;0.83;;
11283;SDS011;5698;47.332;11.180;2023-05-07T11:26:23;1.13;;;0.90;;
11283;SDS011;5698;47.332;11.180;2023-05-07T11:28:51;1.93;;;0.90;;
11283;SDS011;5698;47.332;11.180;2023-05-07T11:31:20;1.70;;;0.83;;
11283;SDS011;5698;47.332;11.180;2023-05-07T11:33:50;0.80;;;0.80;;
11283;SDS011;5698;47.332;11.180;2023-05-07T11:36:18;2.10;;;0.80;;
11283;SDS011;5698;47.332;11.180;2023-05-07T11:38:46;1.37;;;0.57;;
11283;SDS011;5698;47.332;11.180;2023-05-07T11:41:13;1.20;;;0.70;;
11283;SDS011;5698;47.332;11.180;2023-05-07T11:43:55;0.93;;;0.70;;
11283;SDS011;5698;47.332;11.180;2023-05-07T11:46:23;1.10;;;0.67;;
11283;SDS011;5698;47.332;11.180;2023-05-07T11:48:51;2.30;;;0.80;;
11283;SDS011;5698;47.332;11.180;2023-05-07T11:51:19;1.37;;;0.77;;
11283;SDS011;5698;47.332;11.180;2023-05-07T11:53:46;0.80;;;0.60;;
11283;SDS011;5698;47.332;11.180;2023-05-07T11:56:14;0.93;;;0.80;;
11283;SDS011;5698;47.332;11.180;2023-05-07T11:58:43;1.20;;;0.90;;
11283;SDS011;5698;47.332;11.180;2023-05-07T12:01:11;1.00;;;0.70;;
11283;SDS011;5698;47.332;11.180;2023-05-07T12:03:40;1.23;;;0.67;;
11283;SDS011;5698;47.332;11.180;2023-05-07T12:06:10;2.00;;;0.77;;
11283;SDS011;5698;47.332;11.180;2023-05-07T12:08:38;1.17;;;0.90;;
11283;SDS011;5698;47.332;11.180;2023-05-07T12:11:08;1.30;;;0.90;;
11283;SDS011;5698;47.332;11.180;2023-05-07T12:13:38;1.23;;;0.80;;
11283;SDS011;5698;47.332;11.180;2023-05-07T12:16:06;1.90;;;0.80;;
11283;SDS011;5698;47.332;11.180;2023-05-07T12:18:34;0.80;;;0.80;;
11283;SDS011;5698;47.332;11.180;2023-05-07T12:21:03;0.80;;;0.70;;
11283;SDS011;5698;47.332;11.180;2023-05-07T12:23:33;0.80;;;0.80;;
11283;SDS011;5698;47.332;11.180;2023-05-07T12:26:00;3.33;;;0.90;;
11283;SDS011;5698;47.332;11.180;2023-05-07T12:28:28;1.27;;;0.97;;
11283;SDS011;5698;47.332;11.180;2023-05-07T12:30:55;0.73;;;0.73;;
11283;SDS011;5698;47.332;11.180;2023-05-07T12:33:24;2.97;;;1.10;;
11283;SDS011;5698;47.332;11.180;2023-05-07T12:35:54;1.67;;;1.10;;
11283;SDS011;5698;47.332;11.180;2023-05-07T12:38:22;0.80;;;0.80;;
11283;SDS011;5698;47.332;11.180;2023-05-07T12:40:52;1.27;;;0.70;;
11283;SDS011;5698;47.332;11.180;2023-05-07T12:43:21;0.60;;;0.60;;
11283;SDS011;5698;47.332;11.180;2023-05-07T12:45:50;1.27;;;0.70;;
11283;SDS011;5698;47.332;11.180;2023-05-07T12:48:19;1.40;;;0.80;;
11283;SDS011;5698;47.332;11.180;2023-05-07T12:50:48;1.07;;;0.73;;
11283;SDS011;5698;47.332;11.180;2023-05-07T12:53:16;1.60;;;0.80;;
11283;SDS011;5698;47.332;11.180;2023-05-07T12:55:44;1.27;;;0.87;;
11283;SDS011;5698;47.332;11.180;2023-05-07T12:58:17;0.67;;;0.67;;
11283;SDS011;5698;47.332;11.180;2023-05-07T13:00:45;0.60;;;0.60;;
11283;SDS011;5698;47.332;11.180;2023-05-07T13:03:20;1.30;;;0.80;;
11283;SDS011;5698;47.332;11.180;2023-05-07T13:05:48;0.90;;;0.70;;
11283;SDS011;5698;47.332;11.180;2023-05-07T13:08:23;0.73;;;0.73;;
11283;SDS011;5698;47.332;11.180;2023-05-07T13:10:50;1.00;;;0.50;;
11283;SDS011;5698;47.332;11.180;2023-05-07T13:13:19;1.73;;;0.80;;
11283;SDS011;5698;47.332;11.180;2023-05-07T13:15:46;1.33;;;0.80;;
11283;SDS011;5698;47.332;11.180;2023-05-07T13:18:13;1.33;;;0.70;;
11283;SDS011;5698;47.332;11.180;2023-05-07T13:20:40;0.60;;;0.57;;
11283;SDS011;5698;47.332;11.180;2023-05-07T13:23:07;3.40;;;0.77;;
11283;SDS011;5698;47.332;11.180;2023-05-07T13:25:34;1.40;;;0.73;;
11283;SDS011;5698;47.332;11.180;2023-05-07T13:28:01;1.30;;;0.70;;
11283;SDS011;5698;47.332;11.180;2023-05-07T13:30:30;0.60;;;0.60;;
11283;SDS011;5698;47.332;11.180;2023-05-07T13:32:57;1.87;;;0.90;;
11283;SDS011;5698;47.332;11.180;2023-05-07T13:35:24;1.63;;;0.60;;
11283;SDS011;5698;47.332;11.180;2023-05-07T13:37:52;0.70;;;0.60;;
11283;SDS011;5698;47.332;11.180;2023-05-07T13:40:19;0.70;;;0.60;;
11283;SDS011;5698;47.332;11.180;2023-05-07T13:42:47;1.07;;;0.70;;
11283;SDS011;5698;47.332;11.180;2023-05-07T13:45:14;1.33;;;0.80;;
11283;SDS011;5698;47.332;11.180;2023-05-07T13:47:42;0.60;;;0.60;;
11283;SDS011;5698;47.332;11.180;2023-05-07T13:50:10;1.13;;;0.60;;
11283;SDS011;5698;47.332;11.180;2023-05-07T13:52:38;0.70;;;0.70;;
11283;SDS011;5698;47.332;11.180;2023-05-07T13:55:08;1.63;;;0.60;;
11283;SDS011;5698;47.332;11.180;2023-05-07T13:57:35;1.37;;;0.70;;
11283;SDS011;5698;47.332;11.180;2023-05-07T14:00:02;2.50;;;0.80;;
11283;SDS011;5698;47.332;11.180;2023-05-07T14:02:30;0.80;;;0.80;;
11283;SDS011;5698;47.332;11.180;2023-05-07T14:04:58;1.67;;;0.77;;
11283;SDS011;5698;47.332;11.180;2023-05-07T14:07:25;1.00;;;0.70;;
11283;SDS011;5698;47.332;11.180;2023-05-07T14:09:53;1.00;;;0.60;;
11283;SDS011;5698;47.332;11.180;2023-05-07T14:12:20;2.50;;;0.87;;
11283;SDS011;5698;47.332;11.180;2023-05-07T14:14:47;0.67;;;0.67;;
11283;SDS011;5698;47.332;11.180;2023-05-07T14:17:15;1.40;;;0.77;;
11283;SDS011;5698;47.332;11.180;2023-05-07T14:19:42;2.30;;;0.83;;
11283;SDS011;5698;47.332;11.180;2023-05-07T14:22:11;1.27;;;0.90;;
11283;SDS011;5698;47.332;11.180;2023-05-07T14:24:39;0.80;;;0.80;;
11283;SDS011;5698;47.332;11.180;2023-05-07T14:27:06;0.70;;;0.70;;
11283;SDS011;5698;47.332;11.180;2023-05-07T14:29:33;3.03;;;0.70;;
11283;SDS011;5698;47.332;11.180;2023-05-07T14:32:01;0.73;;;0.70;;
11283;SDS011;5698;47.332;11.180;2023-05-07T14:34:28;1.90;;;0.90;;
11283;SDS011;5698;47.332;11.180;2023-05-07T14:36:56;1.20;;;0.70;;
11283;SDS011;5698;47.332;11.180;2023-05-07T14:39:24;2.10;;;0.70;;
11283;SDS011;5698;47.332;11.180;2023-05-07T14:41:51;0.80;;;0.70;;
11283;SDS011;5698;47.332;11.180;2023-05-07T14:44:19;1.03;;;0.80;;
11283;SDS011;5698;47.332;11.180;2023-05-07T14:46:46;2.40;;;1.00;;
11283;SDS011;5698;47.332;11.180;2023-05-07T14:49:14;1.53;;;0.90;;
11283;SDS011;5698;47.332;11.180;2023-05-07T14:51:42;1.27;;;0.90;;
11283;SDS011;5698;47.332;11.180;2023-05-07T14:54:10;2.50;;;1.20;;
11283;SDS011;5698;47.332;11.180;2023-05-07T14:56:38;1.37;;;1.10;;
11283;SDS011;5698;47.332;11.180;2023-05-07T14:59:06;1.50;;;0.90;;